DLH5CF LICA-EDDM
Flight info
| Callsign | DLH5CF |
|---|---|
| Flight time | 1h 44m |
| Altitude | 18000 |
| Route | ARBUM M620 EVINO/N0458F360 DCT VAPUP DCT MINTU DCT RASTA DCT REDBU Q112 NAPSA NAPSA4A |
| Aircraft | A320/M-SDE3FGHIRWY/LB1 |
Departure
| Time | 2026-05-01 12:18 |
|---|---|
| Airport | Lamezia Terme Sant'Eufemia International Airport (LICA) |
Arrival
| Time | 2026-05-01 14:02 |
|---|---|
| Airport | Munich Airport (EDDM) |
| Time | Latitude | Longitude | Altitude | Speed | Heading |
|---|---|---|---|---|---|
| 2026-05-01 11:59 | 38.90847 | 16.24674 | 37 ft | 0 kts | 11° |
| 2026-05-01 12:11 | 38.90840 | 16.24673 | 36 ft | 4 kts | 9° |
| 2026-05-01 12:12 | 38.90813 | 16.24668 | 36 ft | 4 kts | 8° |
| 2026-05-01 12:12 | 38.90786 | 16.24663 | 36 ft | 4 kts | 8° |
| 2026-05-01 12:12 | 38.90772 | 16.24661 | 36 ft | 0 kts | 8° |
| 2026-05-01 12:15 | 38.90777 | 16.24682 | 35 ft | 5 kts | 81° |
| 2026-05-01 12:15 | 38.90778 | 16.24731 | 37 ft | 11 kts | 95° |
| 2026-05-01 12:15 | 38.90761 | 16.24891 | 38 ft | 18 kts | 98° |
| 2026-05-01 12:15 | 38.90742 | 16.25044 | 39 ft | 16 kts | 99° |
| 2026-05-01 12:16 | 38.90727 | 16.25179 | 40 ft | 14 kts | 97° |
| 2026-05-01 12:16 | 38.90689 | 16.25283 | 41 ft | 12 kts | 134° |
| 2026-05-01 12:16 | 38.90625 | 16.25355 | 41 ft | 14 kts | 131° |
| 2026-05-01 12:16 | 38.90565 | 16.25469 | 42 ft | 15 kts | 131° |
| 2026-05-01 12:17 | 38.90492 | 16.25546 | 43 ft | 13 kts | 146° |
| 2026-05-01 12:17 | 38.90417 | 16.25561 | 43 ft | 10 kts | 218° |
| 2026-05-01 12:17 | 38.90403 | 16.25347 | 42 ft | 55 kts | 279° |
| 2026-05-01 12:17 | 38.90499 | 16.24579 | 36 ft | 117 kts | 278° |
| 2026-05-01 12:18 | 38.90639 | 16.23346 | 132 ft | 155 kts | 278° |
| 2026-05-01 12:18 | 38.90810 | 16.21975 | 826 ft | 157 kts | 278° |
| 2026-05-01 12:18 | 38.90992 | 16.20579 | 1351 ft | 168 kts | 281° |
| 2026-05-01 12:18 | 38.91200 | 16.19008 | 1669 ft | 190 kts | 283° |
| 2026-05-01 12:19 | 38.91412 | 16.17216 | 2048 ft | 215 kts | 281° |
| 2026-05-01 12:19 | 38.91636 | 16.15216 | 2461 ft | 238 kts | 283° |
| 2026-05-01 12:19 | 38.91920 | 16.13017 | 2959 ft | 257 kts | 289° |
| 2026-05-01 12:19 | 38.92781 | 16.11008 | 3726 ft | 259 kts | 312° |
| 2026-05-01 12:20 | 38.93938 | 16.09232 | 4699 ft | 260 kts | 313° |
| 2026-05-01 12:20 | 38.95115 | 16.07452 | 5633 ft | 261 kts | 313° |
| 2026-05-01 12:20 | 38.96296 | 16.05676 | 6566 ft | 263 kts | 312° |
| 2026-05-01 12:20 | 38.97087 | 16.04485 | 7141 ft | 264 kts | 313° |
| 2026-05-01 12:21 | 38.98674 | 16.02091 | 8386 ft | 265 kts | 311° |
| 2026-05-01 12:21 | 38.99463 | 16.00894 | 8971 ft | 266 kts | 311° |
| 2026-05-01 12:21 | 39.00671 | 15.99059 | 9750 ft | 271 kts | 311° |
| 2026-05-01 12:21 | 39.01898 | 15.97192 | 10453 ft | 280 kts | 310° |
| 2026-05-01 12:22 | 39.03297 | 15.95310 | 10702 ft | 303 kts | 319° |
| 2026-05-01 12:22 | 39.05080 | 15.93745 | 11160 ft | 316 kts | 332° |
| 2026-05-01 12:22 | 39.07096 | 15.92549 | 11860 ft | 321 kts | 334° |
| 2026-05-01 12:22 | 39.09137 | 15.91356 | 12658 ft | 323 kts | 334° |
| 2026-05-01 12:23 | 39.11194 | 15.90144 | 13420 ft | 326 kts | 333° |
| 2026-05-01 12:23 | 39.13266 | 15.88916 | 14141 ft | 329 kts | 333° |
| 2026-05-01 12:23 | 39.15352 | 15.87680 | 14807 ft | 331 kts | 333° |
| 2026-05-01 12:23 | 39.17457 | 15.86430 | 15459 ft | 335 kts | 333° |
| 2026-05-01 12:24 | 39.19579 | 15.85167 | 16095 ft | 338 kts | 333° |
| 2026-05-01 12:24 | 39.21723 | 15.83894 | 16750 ft | 340 kts | 332° |
| 2026-05-01 12:24 | 39.23886 | 15.82611 | 17398 ft | 343 kts | 332° |
| 2026-05-01 12:24 | 39.26066 | 15.81317 | 18035 ft | 346 kts | 332° |
| 2026-05-01 12:25 | 39.28141 | 15.79839 | 18610 ft | 345 kts | 322° |
| 2026-05-01 12:25 | 39.31840 | 15.75880 | 19789 ft | 345 kts | 317° |
| 2026-05-01 12:25 | 39.33668 | 15.73864 | 20386 ft | 346 kts | 317° |
| 2026-05-01 12:26 | 39.35499 | 15.71847 | 20986 ft | 346 kts | 316° |
| 2026-05-01 12:26 | 39.39170 | 15.67808 | 22144 ft | 347 kts | 316° |
| 2026-05-01 12:26 | 39.41012 | 15.65781 | 22730 ft | 348 kts | 316° |
| 2026-05-01 12:27 | 39.42857 | 15.63748 | 23235 ft | 350 kts | 317° |
| 2026-05-01 12:27 | 39.46582 | 15.59637 | 24153 ft | 353 kts | 316° |
| 2026-05-01 12:28 | 39.50331 | 15.55486 | 24979 ft | 356 kts | 316° |
| 2026-05-01 12:28 | 39.52191 | 15.53428 | 25376 ft | 357 kts | 316° |
| 2026-05-01 12:28 | 39.55978 | 15.49218 | 26167 ft | 360 kts | 315° |
| 2026-05-01 12:29 | 39.57885 | 15.47093 | 26550 ft | 362 kts | 315° |
| 2026-05-01 12:29 | 39.59795 | 15.44968 | 26930 ft | 363 kts | 315° |
| 2026-05-01 12:29 | 39.63528 | 15.40815 | 27665 ft | 366 kts | 315° |
| 2026-05-01 12:30 | 39.64824 | 15.39373 | 27905 ft | 367 kts | 315° |
| 2026-05-01 12:30 | 39.66767 | 15.37210 | 28287 ft | 369 kts | 314° |
| 2026-05-01 12:31 | 39.68753 | 15.35084 | 28645 ft | 373 kts | 319° |
| 2026-05-01 12:31 | 39.71047 | 15.33389 | 28827 ft | 388 kts | 330° |
| 2026-05-01 12:31 | 39.73677 | 15.32331 | 28971 ft | 405 kts | 340° |
| 2026-05-01 12:31 | 39.76547 | 15.31958 | 29144 ft | 421 kts | 349° |
| 2026-05-01 12:32 | 39.79484 | 15.31885 | 29394 ft | 424 kts | 349° |
| 2026-05-01 12:32 | 39.85412 | 15.31691 | 29974 ft | 427 kts | 349° |
| 2026-05-01 12:32 | 39.88378 | 15.31585 | 30349 ft | 426 kts | 349° |
| 2026-05-01 12:33 | 39.91337 | 15.31482 | 30692 ft | 426 kts | 349° |
| 2026-05-01 12:33 | 39.94304 | 15.31377 | 30979 ft | 426 kts | 349° |
| 2026-05-01 12:33 | 39.97265 | 15.31275 | 31277 ft | 426 kts | 350° |
| 2026-05-01 12:33 | 40.00238 | 15.31175 | 31580 ft | 426 kts | 350° |
| 2026-05-01 12:34 | 40.03162 | 15.31078 | 31879 ft | 426 kts | 350° |
| 2026-05-01 12:34 | 40.06130 | 15.30979 | 32185 ft | 427 kts | 351° |
| 2026-05-01 12:34 | 40.09101 | 15.30881 | 32515 ft | 427 kts | 351° |
| 2026-05-01 12:34 | 40.12067 | 15.30785 | 32873 ft | 427 kts | 352° |
| 2026-05-01 12:35 | 40.15043 | 15.30689 | 33145 ft | 428 kts | 352° |
| 2026-05-01 12:35 | 40.18016 | 15.30593 | 33437 ft | 428 kts | 352° |
| 2026-05-01 12:35 | 40.20992 | 15.30494 | 33753 ft | 428 kts | 352° |
| 2026-05-01 12:35 | 40.23970 | 15.30392 | 34087 ft | 428 kts | 352° |
| 2026-05-01 12:36 | 40.26943 | 15.30289 | 34379 ft | 427 kts | 352° |
| 2026-05-01 12:36 | 40.29927 | 15.30189 | 34655 ft | 427 kts | 352° |
| 2026-05-01 12:36 | 40.32905 | 15.30089 | 34956 ft | 427 kts | 353° |
| 2026-05-01 12:36 | 40.35880 | 15.29990 | 35175 ft | 428 kts | 353° |
| 2026-05-01 12:37 | 40.38860 | 15.29893 | 35401 ft | 428 kts | 353° |
| 2026-05-01 12:37 | 40.41806 | 15.29796 | 35641 ft | 429 kts | 353° |
| 2026-05-01 12:37 | 40.44786 | 15.29695 | 35873 ft | 429 kts | 353° |
| 2026-05-01 12:37 | 40.47769 | 15.29591 | 36084 ft | 429 kts | 353° |
| 2026-05-01 12:38 | 40.53762 | 15.29380 | 36179 ft | 431 kts | 353° |
| 2026-05-01 12:38 | 40.59776 | 15.29181 | 36189 ft | 433 kts | 353° |
| 2026-05-01 12:39 | 40.65802 | 15.28990 | 36191 ft | 433 kts | 354° |
| 2026-05-01 12:39 | 40.71832 | 15.28786 | 36196 ft | 433 kts | 353° |
| 2026-05-01 12:40 | 40.77857 | 15.28571 | 36214 ft | 432 kts | 354° |
| 2026-05-01 12:40 | 40.83875 | 15.28362 | 36219 ft | 433 kts | 354° |
| 2026-05-01 12:41 | 40.89901 | 15.28154 | 36217 ft | 433 kts | 354° |
| 2026-05-01 12:41 | 40.95894 | 15.27955 | 36221 ft | 433 kts | 354° |
| 2026-05-01 12:42 | 41.01929 | 15.27761 | 36242 ft | 433 kts | 355° |
| 2026-05-01 12:42 | 41.07964 | 15.27552 | 36238 ft | 433 kts | 355° |
| 2026-05-01 12:43 | 41.13996 | 15.27345 | 36240 ft | 433 kts | 355° |
| 2026-05-01 12:43 | 41.20032 | 15.27131 | 36270 ft | 433 kts | 355° |
| 2026-05-01 12:44 | 41.26054 | 15.26930 | 36269 ft | 432 kts | 355° |
| 2026-05-01 12:45 | 41.38024 | 15.26510 | 36263 ft | 431 kts | 355° |
| 2026-05-01 12:45 | 41.44016 | 15.26300 | 36273 ft | 431 kts | 356° |
| 2026-05-01 12:46 | 41.50013 | 15.26091 | 36267 ft | 431 kts | 356° |
| 2026-05-01 12:46 | 41.56015 | 15.25888 | 36270 ft | 431 kts | 356° |
| 2026-05-01 12:47 | 41.62016 | 15.25685 | 36274 ft | 431 kts | 356° |
| 2026-05-01 12:47 | 41.68016 | 15.25475 | 36277 ft | 431 kts | 356° |
| 2026-05-01 12:48 | 41.74017 | 15.25267 | 36274 ft | 431 kts | 356° |
| 2026-05-01 12:48 | 41.80018 | 15.25057 | 36282 ft | 431 kts | 356° |
| 2026-05-01 12:49 | 41.86019 | 15.24847 | 36284 ft | 431 kts | 356° |
| 2026-05-01 12:49 | 41.92029 | 15.24638 | 36284 ft | 431 kts | 356° |
| 2026-05-01 12:50 | 41.97995 | 15.24423 | 36286 ft | 431 kts | 356° |
| 2026-05-01 12:50 | 42.03992 | 15.24211 | 36294 ft | 431 kts | 357° |
| 2026-05-01 12:51 | 42.09996 | 15.23999 | 36289 ft | 432 kts | 357° |
| 2026-05-01 12:52 | 42.19007 | 15.23670 | 36287 ft | 432 kts | 357° |
| 2026-05-01 12:52 | 42.28010 | 15.23349 | 36295 ft | 431 kts | 358° |
| 2026-05-01 12:53 | 42.36998 | 15.23026 | 36293 ft | 430 kts | 358° |
| 2026-05-01 12:54 | 42.42988 | 15.22821 | 36299 ft | 430 kts | 358° |
| 2026-05-01 12:54 | 42.51956 | 15.22498 | 36295 ft | 429 kts | 358° |
| 2026-05-01 12:55 | 42.60911 | 15.22176 | 36293 ft | 429 kts | 358° |
| 2026-05-01 12:56 | 42.66880 | 15.21962 | 36288 ft | 429 kts | 359° |
| 2026-05-01 12:56 | 42.72846 | 15.21720 | 36287 ft | 429 kts | 355° |
| 2026-05-01 12:57 | 42.78658 | 15.19922 | 36297 ft | 429 kts | 346° |
| 2026-05-01 12:57 | 42.87288 | 15.16842 | 36296 ft | 429 kts | 347° |
| 2026-05-01 12:58 | 42.93066 | 15.14777 | 36293 ft | 429 kts | 347° |
| 2026-05-01 12:59 | 43.01735 | 15.11691 | 36291 ft | 429 kts | 347° |
| 2026-05-01 12:59 | 43.10389 | 15.08597 | 36295 ft | 428 kts | 347° |
| 2026-05-01 13:00 | 43.19035 | 15.05492 | 36304 ft | 428 kts | 347° |
| 2026-05-01 13:01 | 43.27628 | 15.02398 | 36301 ft | 427 kts | 347° |
| 2026-05-01 13:02 | 43.36237 | 14.99288 | 36303 ft | 426 kts | 347° |
| 2026-05-01 13:07 | 43.99001 | 14.76338 | 36308 ft | 423 kts | 349° |
| 2026-05-01 13:08 | 44.04694 | 14.74233 | 36296 ft | 423 kts | 349° |
| 2026-05-01 13:08 | 44.09417 | 14.72484 | 36303 ft | 423 kts | 349° |
| 2026-05-01 13:09 | 44.16023 | 14.70034 | 36309 ft | 422 kts | 349° |
| 2026-05-01 13:09 | 44.20784 | 14.68261 | 36313 ft | 422 kts | 349° |
| 2026-05-01 13:10 | 44.26459 | 14.66142 | 36312 ft | 422 kts | 349° |
| 2026-05-01 13:10 | 44.32132 | 14.64025 | 36316 ft | 421 kts | 350° |
| 2026-05-01 13:11 | 44.37757 | 14.61924 | 36320 ft | 421 kts | 349° |
| 2026-05-01 13:11 | 44.43417 | 14.59799 | 36315 ft | 421 kts | 349° |
| 2026-05-01 13:12 | 44.49068 | 14.57668 | 36332 ft | 420 kts | 351° |
| 2026-05-01 13:12 | 44.54706 | 14.55552 | 36330 ft | 418 kts | 351° |
| 2026-05-01 13:13 | 44.60321 | 14.53433 | 36328 ft | 417 kts | 350° |
| 2026-05-01 13:13 | 44.65926 | 14.51304 | 36313 ft | 417 kts | 351° |
| 2026-05-01 13:14 | 44.71521 | 14.49192 | 36302 ft | 415 kts | 351° |
| 2026-05-01 13:14 | 44.77097 | 14.47079 | 36320 ft | 415 kts | 351° |
| 2026-05-01 13:15 | 44.82632 | 14.44965 | 36331 ft | 414 kts | 351° |
| 2026-05-01 13:15 | 44.88194 | 14.42844 | 36325 ft | 414 kts | 351° |
| 2026-05-01 13:16 | 44.93750 | 14.40735 | 36328 ft | 414 kts | 351° |
| 2026-05-01 13:16 | 44.99309 | 14.38606 | 36327 ft | 413 kts | 351° |
| 2026-05-01 13:17 | 45.10420 | 14.34343 | 36328 ft | 414 kts | 351° |
| 2026-05-01 13:18 | 45.18748 | 14.31131 | 36311 ft | 413 kts | 351° |
| 2026-05-01 13:18 | 45.24297 | 14.28993 | 36321 ft | 413 kts | 351° |
| 2026-05-01 13:19 | 45.29849 | 14.26845 | 36323 ft | 413 kts | 351° |
| 2026-05-01 13:20 | 45.38164 | 14.23618 | 36325 ft | 413 kts | 351° |
| 2026-05-01 13:20 | 45.43718 | 14.21459 | 36327 ft | 413 kts | 351° |
| 2026-05-01 13:21 | 45.52002 | 14.18225 | 36323 ft | 413 kts | 350° |
| 2026-05-01 13:21 | 45.57587 | 14.16050 | 36301 ft | 413 kts | 350° |
| 2026-05-01 13:22 | 45.63092 | 14.13893 | 36319 ft | 413 kts | 350° |
| 2026-05-01 13:22 | 45.68639 | 14.11717 | 36325 ft | 413 kts | 350° |
| 2026-05-01 13:23 | 45.74182 | 14.09530 | 36311 ft | 413 kts | 349° |
| 2026-05-01 13:23 | 45.79735 | 14.07340 | 36309 ft | 414 kts | 349° |
| 2026-05-01 13:24 | 45.85293 | 14.05147 | 36331 ft | 414 kts | 349° |
| 2026-05-01 13:25 | 45.93645 | 14.01844 | 36329 ft | 414 kts | 349° |
| 2026-05-01 13:25 | 45.99203 | 13.99632 | 36330 ft | 415 kts | 349° |
| 2026-05-01 13:26 | 46.04724 | 13.97430 | 36306 ft | 414 kts | 349° |
| 2026-05-01 13:26 | 46.10286 | 13.95223 | 36311 ft | 414 kts | 349° |
| 2026-05-01 13:27 | 46.15849 | 13.93009 | 36315 ft | 415 kts | 349° |
| 2026-05-01 13:27 | 46.24212 | 13.89654 | 36322 ft | 416 kts | 349° |
| 2026-05-01 13:28 | 46.32589 | 13.86280 | 36324 ft | 417 kts | 349° |
| 2026-05-01 13:29 | 46.43783 | 13.81768 | 36328 ft | 418 kts | 348° |
| 2026-05-01 13:31 | 46.60642 | 13.74941 | 36331 ft | 420 kts | 348° |
| 2026-05-01 13:32 | 46.74711 | 13.69191 | 36326 ft | 420 kts | 348° |
| 2026-05-01 13:33 | 46.88783 | 13.63426 | 36334 ft | 420 kts | 348° |
| 2026-05-01 13:34 | 47.00000 | 13.58805 | 36313 ft | 420 kts | 348° |
| 2026-05-01 13:35 | 47.08454 | 13.55320 | 36318 ft | 421 kts | 348° |
| 2026-05-01 13:36 | 47.16912 | 13.51802 | 36326 ft | 421 kts | 348° |
| 2026-05-01 13:36 | 47.25369 | 13.48278 | 36318 ft | 422 kts | 348° |
| 2026-05-01 13:37 | 47.31010 | 13.45916 | 36324 ft | 421 kts | 348° |
| 2026-05-01 13:37 | 47.36650 | 13.43560 | 36329 ft | 422 kts | 348° |
| 2026-05-01 13:38 | 47.45124 | 13.40012 | 36306 ft | 422 kts | 347° |
| 2026-05-01 13:39 | 47.50524 | 13.36664 | 36291 ft | 430 kts | 332° |
| 2026-05-01 13:39 | 47.52983 | 13.34077 | 35448 ft | 440 kts | 326° |
| 2026-05-01 13:39 | 47.55386 | 13.31191 | 34412 ft | 449 kts | 325° |
| 2026-05-01 13:39 | 47.57808 | 13.28231 | 33362 ft | 453 kts | 324° |
| 2026-05-01 13:40 | 47.60241 | 13.25239 | 32384 ft | 455 kts | 324° |
| 2026-05-01 13:40 | 47.62681 | 13.22234 | 31475 ft | 457 kts | 324° |
| 2026-05-01 13:40 | 47.65128 | 13.19233 | 30566 ft | 457 kts | 324° |
| 2026-05-01 13:40 | 47.67584 | 13.16231 | 29606 ft | 455 kts | 324° |
| 2026-05-01 13:41 | 47.70004 | 13.13274 | 28129 ft | 448 kts | 324° |
| 2026-05-01 13:41 | 47.72405 | 13.10342 | 26678 ft | 444 kts | 324° |
| 2026-05-01 13:41 | 47.74779 | 13.07440 | 25359 ft | 439 kts | 324° |
| 2026-05-01 13:41 | 47.77115 | 13.04578 | 24377 ft | 428 kts | 324° |
| 2026-05-01 13:42 | 47.79371 | 13.01806 | 23823 ft | 418 kts | 324° |
| 2026-05-01 13:42 | 47.81608 | 12.99060 | 23155 ft | 414 kts | 324° |
| 2026-05-01 13:42 | 47.83811 | 12.96352 | 22595 ft | 408 kts | 324° |
| 2026-05-01 13:42 | 47.85983 | 12.93680 | 22061 ft | 402 kts | 324° |
| 2026-05-01 13:43 | 47.88126 | 12.91043 | 21528 ft | 397 kts | 324° |
| 2026-05-01 13:43 | 47.90246 | 12.88434 | 21043 ft | 392 kts | 324° |
| 2026-05-01 13:43 | 47.92340 | 12.85850 | 20545 ft | 388 kts | 324° |
| 2026-05-01 13:43 | 47.94379 | 12.83249 | 20096 ft | 386 kts | 320° |
| 2026-05-01 13:44 | 47.96153 | 12.80237 | 19604 ft | 387 kts | 309° |
| 2026-05-01 13:44 | 47.97570 | 12.76894 | 19137 ft | 386 kts | 304° |
| 2026-05-01 13:44 | 47.98933 | 12.73457 | 18658 ft | 384 kts | 304° |
| 2026-05-01 13:44 | 48.00295 | 12.70029 | 18111 ft | 382 kts | 304° |
| 2026-05-01 13:45 | 48.01647 | 12.66621 | 17625 ft | 379 kts | 304° |
| 2026-05-01 13:45 | 48.02985 | 12.63235 | 17119 ft | 378 kts | 304° |
| 2026-05-01 13:45 | 48.04316 | 12.59866 | 16610 ft | 376 kts | 304° |
| 2026-05-01 13:45 | 48.05646 | 12.56502 | 16111 ft | 375 kts | 304° |
| 2026-05-01 13:46 | 48.06975 | 12.53151 | 15599 ft | 374 kts | 304° |
| 2026-05-01 13:46 | 48.08293 | 12.49855 | 15088 ft | 373 kts | 304° |
| 2026-05-01 13:46 | 48.09628 | 12.46529 | 14573 ft | 372 kts | 304° |
| 2026-05-01 13:46 | 48.10962 | 12.43207 | 14032 ft | 372 kts | 304° |
| 2026-05-01 13:47 | 48.12294 | 12.39882 | 13505 ft | 369 kts | 304° |
| 2026-05-01 13:47 | 48.13551 | 12.36609 | 13338 ft | 358 kts | 299° |
| 2026-05-01 13:47 | 48.14411 | 12.33131 | 13005 ft | 355 kts | 286° |
| 2026-05-01 13:47 | 48.14782 | 12.29494 | 12760 ft | 354 kts | 278° |
| 2026-05-01 13:48 | 48.15028 | 12.25841 | 12385 ft | 352 kts | 278° |
| 2026-05-01 13:48 | 48.15278 | 12.22209 | 11986 ft | 350 kts | 277° |
| 2026-05-01 13:48 | 48.15529 | 12.18595 | 11591 ft | 347 kts | 278° |
| 2026-05-01 13:48 | 48.15780 | 12.15016 | 11197 ft | 344 kts | 277° |
| 2026-05-01 13:49 | 48.16028 | 12.11467 | 10811 ft | 341 kts | 277° |
| 2026-05-01 13:49 | 48.16265 | 12.08029 | 10653 ft | 331 kts | 278° |
| 2026-05-01 13:49 | 48.16493 | 12.04655 | 10536 ft | 320 kts | 277° |
| 2026-05-01 13:49 | 48.16712 | 12.01383 | 10360 ft | 313 kts | 277° |
| 2026-05-01 13:50 | 48.16927 | 11.98175 | 10157 ft | 308 kts | 277° |
| 2026-05-01 13:50 | 48.17142 | 11.94988 | 9828 ft | 306 kts | 277° |
| 2026-05-01 13:50 | 48.17356 | 11.91813 | 9334 ft | 308 kts | 276° |
| 2026-05-01 13:50 | 48.17571 | 11.88624 | 9013 ft | 305 kts | 276° |
| 2026-05-01 13:51 | 48.17782 | 11.85483 | 8670 ft | 302 kts | 276° |
| 2026-05-01 13:51 | 48.17990 | 11.82367 | 8329 ft | 299 kts | 276° |
| 2026-05-01 13:51 | 48.18193 | 11.79273 | 7958 ft | 298 kts | 275° |
| 2026-05-01 13:51 | 48.18391 | 11.76204 | 7680 ft | 293 kts | 275° |
| 2026-05-01 13:52 | 48.18592 | 11.73171 | 7289 ft | 293 kts | 275° |
| 2026-05-01 13:52 | 48.18803 | 11.70122 | 6907 ft | 294 kts | 275° |
| 2026-05-01 13:52 | 48.19026 | 11.67097 | 6584 ft | 290 kts | 276° |
| 2026-05-01 13:52 | 48.19237 | 11.64138 | 6267 ft | 287 kts | 275° |
| 2026-05-01 13:53 | 48.19454 | 11.61167 | 5836 ft | 288 kts | 275° |
| 2026-05-01 13:53 | 48.19861 | 11.55273 | 5110 ft | 283 kts | 275° |
| 2026-05-01 13:53 | 48.20056 | 11.52349 | 4983 ft | 282 kts | 275° |
| 2026-05-01 13:54 | 48.20255 | 11.49396 | 4982 ft | 286 kts | 275° |
| 2026-05-01 13:54 | 48.20452 | 11.46450 | 4986 ft | 283 kts | 275° |
| 2026-05-01 13:54 | 48.20824 | 11.43531 | 4983 ft | 286 kts | 292° |
| 2026-05-01 13:54 | 48.21864 | 11.41053 | 4984 ft | 275 kts | 317° |
| 2026-05-01 13:55 | 48.23357 | 11.39486 | 4987 ft | 251 kts | 340° |
| 2026-05-01 13:55 | 48.24972 | 11.38886 | 4988 ft | 230 kts | 1° |
| 2026-05-01 13:55 | 48.26533 | 11.39116 | 4987 ft | 220 kts | 20° |
| 2026-05-01 13:55 | 48.27903 | 11.40026 | 4990 ft | 215 kts | 39° |
| 2026-05-01 13:56 | 48.29013 | 11.41491 | 4999 ft | 211 kts | 50° |
| 2026-05-01 13:56 | 48.30021 | 11.43097 | 4995 ft | 212 kts | 49° |
| 2026-05-01 13:56 | 48.31040 | 11.44716 | 5010 ft | 214 kts | 51° |
| 2026-05-01 13:56 | 48.32064 | 11.46340 | 5010 ft | 214 kts | 51° |
| 2026-05-01 13:57 | 48.32739 | 11.47411 | 5010 ft | 211 kts | 49° |
| 2026-05-01 13:57 | 48.33679 | 11.49028 | 4988 ft | 199 kts | 60° |
| 2026-05-01 13:57 | 48.34218 | 11.50879 | 4852 ft | 191 kts | 80° |
| 2026-05-01 13:57 | 48.34400 | 11.52861 | 4626 ft | 191 kts | 84° |
| 2026-05-01 13:58 | 48.34610 | 11.55530 | 4288 ft | 197 kts | 84° |
| 2026-05-01 13:58 | 48.34719 | 11.56914 | 4131 ft | 196 kts | 84° |
| 2026-05-01 13:58 | 48.34876 | 11.58908 | 3877 ft | 190 kts | 83° |
| 2026-05-01 13:58 | 48.35030 | 11.60839 | 3611 ft | 181 kts | 83° |
| 2026-05-01 13:59 | 48.35172 | 11.62647 | 3421 ft | 164 kts | 83° |
| 2026-05-01 13:59 | 48.35300 | 11.64276 | 3165 ft | 149 kts | 82° |
| 2026-05-01 13:59 | 48.35417 | 11.65756 | 2975 ft | 141 kts | 83° |
| 2026-05-01 13:59 | 48.35529 | 11.67177 | 2801 ft | 135 kts | 83° |
| 2026-05-01 14:00 | 48.35638 | 11.68582 | 2613 ft | 136 kts | 82° |
| 2026-05-01 14:00 | 48.35746 | 11.69960 | 2424 ft | 134 kts | 84° |
| 2026-05-01 14:00 | 48.35855 | 11.71354 | 2234 ft | 135 kts | 85° |
| 2026-05-01 14:00 | 48.35964 | 11.72760 | 2049 ft | 136 kts | 85° |
| 2026-05-01 14:01 | 48.36074 | 11.74172 | 1857 ft | 136 kts | 85° |
| 2026-05-01 14:01 | 48.36182 | 11.75557 | 1682 ft | 135 kts | 85° |
| 2026-05-01 14:01 | 48.36290 | 11.76955 | 1508 ft | 133 kts | 85° |
| 2026-05-01 14:01 | 48.36385 | 11.78223 | 1461 ft | 101 kts | 84° |
| 2026-05-01 14:02 | 48.36447 | 11.79009 | 1464 ft | 51 kts | 84° |
| 2026-05-01 14:02 | 48.36428 | 11.79325 | 1464 ft | 18 kts | 109° |
| 2026-05-01 14:02 | 48.36392 | 11.79469 | 1458 ft | 14 kts | 114° |
| 2026-05-01 14:02 | 48.36356 | 11.79590 | 1465 ft | 14 kts | 113° |
| 2026-05-01 14:03 | 48.36313 | 11.79734 | 1461 ft | 14 kts | 115° |
| 2026-05-01 14:03 | 48.36252 | 11.79826 | 1466 ft | 13 kts | 156° |
| 2026-05-01 14:03 | 48.36220 | 11.79790 | 1465 ft | 6 kts | 292° |
| 2026-05-01 14:03 | 48.36227 | 11.79656 | 1468 ft | 15 kts | 265° |
| 2026-05-01 14:04 | 48.36214 | 11.79547 | 1459 ft | 7 kts | 256° |
| 2026-05-01 14:04 | 48.36200 | 11.79484 | 1463 ft | 6 kts | 240° |
| 2026-05-01 14:04 | 48.36170 | 11.79468 | 1462 ft | 5 kts | 179° |
| 2026-05-01 14:04 | 48.36092 | 11.79481 | 1465 ft | 14 kts | 174° |
| 2026-05-01 14:05 | 48.35984 | 11.79498 | 1464 ft | 17 kts | 174° |
| 2026-05-01 14:05 | 48.35870 | 11.79518 | 1464 ft | 17 kts | 173° |
| 2026-05-01 14:05 | 48.35800 | 11.79606 | 1464 ft | 15 kts | 92° |
| 2026-05-01 14:05 | 48.35812 | 11.79764 | 1467 ft | 14 kts | 85° |